sensor_id;sensor_type;location;lat;lon;timestamp;pressure;altitude;pressure_sealevel;temperature;humidity
65280;BME280;51878;55.748;48.742;2023-09-08T00:01:15;98532.78;;;6.41;100.00
65280;BME280;51878;55.748;48.742;2023-09-08T00:06:17;98582.44;;;6.61;100.00
65280;BME280;51878;55.748;48.742;2023-09-08T00:11:20;98575.13;;;6.47;100.00
65280;BME280;51878;55.748;48.742;2023-09-08T00:16:22;98579.16;;;6.51;100.00
65280;BME280;51878;55.748;48.742;2023-09-08T00:21:25;98539.53;;;6.22;100.00
65280;BME280;51878;55.748;48.742;2023-09-08T00:26:28;98532.53;;;6.13;100.00
65280;BME280;51878;55.748;48.742;2023-09-08T00:31:30;98572.78;;;6.29;100.00
65280;BME280;51878;55.748;48.742;2023-09-08T00:36:32;98587.06;;;6.30;100.00
65280;BME280;51878;55.748;48.742;2023-09-08T00:41:35;98531.16;;;5.94;100.00
65280;BME280;51878;55.748;48.742;2023-09-08T00:46:38;98526.84;;;5.85;100.00
65280;BME280;51878;55.748;48.742;2023-09-08T00:51:40;98537.28;;;5.79;100.00
65280;BME280;51878;55.748;48.742;2023-09-08T00:56:43;98561.16;;;5.83;100.00
65280;BME280;51878;55.748;48.742;2023-09-08T01:01:46;98484.22;;;5.27;100.00
65280;BME280;51878;55.748;48.742;2023-09-08T01:06:49;98558.25;;;5.61;100.00
65280;BME280;51878;55.748;48.742;2023-09-08T01:11:51;98562.97;;;5.59;100.00
65280;BME280;51878;55.748;48.742;2023-09-08T01:16:54;98485.63;;;5.07;100.00
65280;BME280;51878;55.748;48.742;2023-09-08T01:27:33;98494.88;;;5.04;100.00
65280;BME280;51878;55.748;48.742;2023-09-08T01:32:37;98552.19;;;5.36;100.00
65280;BME280;51878;55.748;48.742;2023-09-08T01:37:41;98507.13;;;5.07;100.00
65280;BME280;51878;55.748;48.742;2023-09-08T01:42:44;98548.19;;;5.24;100.00
65280;BME280;51878;55.748;48.742;2023-09-08T01:47:47;98541.19;;;5.14;100.00
65280;BME280;51878;55.748;48.742;2023-09-08T01:52:49;98543.56;;;5.09;100.00
65280;BME280;51878;55.748;48.742;2023-09-08T01:57:51;98446.78;;;4.39;100.00
65280;BME280;51878;55.748;48.742;2023-09-08T02:02:53;98517.81;;;4.84;100.00
65280;BME280;51878;55.748;48.742;2023-09-08T02:07:56;98556.66;;;5.12;100.00
65280;BME280;51878;55.748;48.742;2023-09-08T02:12:59;98535.53;;;5.01;100.00
65280;BME280;51878;55.748;48.742;2023-09-08T02:18:01;98484.09;;;4.81;100.00
65280;BME280;51878;55.748;48.742;2023-09-08T02:23:23;98516.22;;;5.06;100.00
65280;BME280;51878;55.748;48.742;2023-09-08T02:28:26;98498.75;;;5.02;100.00
65280;BME280;51878;55.748;48.742;2023-09-08T02:33:28;98544.00;;;5.29;100.00
65280;BME280;51878;55.748;48.742;2023-09-08T02:38:37;98553.81;;;5.45;100.00
65280;BME280;51878;55.748;48.742;2023-09-08T02:43:39;98535.94;;;5.29;100.00
65280;BME280;51878;55.748;48.742;2023-09-08T02:48:42;98558.16;;;5.46;100.00
65280;BME280;51878;55.748;48.742;2023-09-08T02:53:44;98509.75;;;5.23;100.00
65280;BME280;51878;55.748;48.742;2023-09-08T02:58:46;98513.69;;;5.35;100.00
65280;BME280;51878;55.748;48.742;2023-09-08T03:03:49;98535.09;;;5.60;100.00
65280;BME280;51878;55.748;48.742;2023-09-08T03:08:51;98505.56;;;5.52;100.00
65280;BME280;51878;55.748;48.742;2023-09-08T03:13:53;98545.03;;;5.83;100.00
65280;BME280;51878;55.748;48.742;2023-09-08T03:18:56;98511.84;;;5.67;100.00
65280;BME280;51878;55.748;48.742;2023-09-08T03:23:58;98557.38;;;5.92;100.00
65280;BME280;51878;55.748;48.742;2023-09-08T03:29:00;98526.09;;;5.91;100.00
65280;BME280;51878;55.748;48.742;2023-09-08T03:34:03;98531.16;;;5.94;100.00
65280;BME280;51878;55.748;48.742;2023-09-08T03:39:05;98570.69;;;6.16;100.00
65280;BME280;51878;55.748;48.742;2023-09-08T03:44:07;98560.81;;;6.32;100.00
65280;BME280;51878;55.748;48.742;2023-09-08T03:49:09;98516.88;;;5.93;100.00
65280;BME280;51878;55.748;48.742;2023-09-08T03:54:12;98557.41;;;6.38;100.00
65280;BME280;51878;55.748;48.742;2023-09-08T03:59:14;98559.47;;;6.51;100.00
65280;BME280;51878;55.748;48.742;2023-09-08T04:04:16;98510.25;;;6.57;100.00
65280;BME280;51878;55.748;48.742;2023-09-08T04:09:19;98509.34;;;6.65;100.00
65280;BME280;51878;55.748;48.742;2023-09-08T04:14:22;98550.59;;;6.95;100.00
65280;BME280;51878;55.748;48.742;2023-09-08T04:19:29;98550.94;;;7.21;100.00
65280;BME280;51878;55.748;48.742;2023-09-08T04:24:35;98554.88;;;7.19;100.00
65280;BME280;51878;55.748;48.742;2023-09-08T04:29:38;98510.25;;;7.01;100.00
65280;BME280;51878;55.748;48.742;2023-09-08T04:34:41;98559.13;;;7.64;100.00
65280;BME280;51878;55.748;48.742;2023-09-08T04:39:44;98530.31;;;7.86;100.00
65280;BME280;51878;55.748;48.742;2023-09-08T04:44:47;98523.06;;;8.08;100.00
65280;BME280;51878;55.748;48.742;2023-09-08T04:49:50;98571.81;;;8.43;100.00
65280;BME280;51878;55.748;48.742;2023-09-08T04:54:52;98554.88;;;8.56;100.00
65280;BME280;51878;55.748;48.742;2023-09-08T04:59:54;98554.44;;;8.81;100.00
65280;BME280;51878;55.748;48.742;2023-09-08T05:04:56;98553.53;;;9.02;100.00
65280;BME280;51878;55.748;48.742;2023-09-08T05:09:58;98536.22;;;8.96;100.00
65280;BME280;51878;55.748;48.742;2023-09-08T05:15:01;98555.34;;;9.36;100.00
65280;BME280;51878;55.748;48.742;2023-09-08T05:20:09;98562.72;;;9.49;100.00
65280;BME280;51878;55.748;48.742;2023-09-08T05:25:11;98530.66;;;9.46;100.00
65280;BME280;51878;55.748;48.742;2023-09-08T05:30:14;98518.44;;;9.15;100.00
65280;BME280;51878;55.748;48.742;2023-09-08T05:35:16;98519.91;;;9.18;100.00
65280;BME280;51878;55.748;48.742;2023-09-08T05:40:18;98562.53;;;9.57;100.00
65280;BME280;51878;55.748;48.742;2023-09-08T05:45:22;98557.53;;;9.61;100.00
65280;BME280;51878;55.748;48.742;2023-09-08T05:50:24;98542.59;;;9.71;100.00
65280;BME280;51878;55.748;48.742;2023-09-08T05:55:26;98523.91;;;9.90;100.00
65280;BME280;51878;55.748;48.742;2023-09-08T06:00:28;98561.91;;;10.37;100.00
65280;BME280;51878;55.748;48.742;2023-09-08T06:05:31;98555.88;;;10.41;100.00
65280;BME280;51878;55.748;48.742;2023-09-08T06:10:33;98532.13;;;10.37;100.00
65280;BME280;51878;55.748;48.742;2023-09-08T06:15:35;98558.56;;;10.88;100.00
65280;BME280;51878;55.748;48.742;2023-09-08T06:20:46;98493.53;;;10.68;100.00
65280;BME280;51878;55.748;48.742;2023-09-08T06:25:49;98523.53;;;10.60;100.00
65280;BME280;51878;55.748;48.742;2023-09-08T06:30:51;98573.56;;;10.84;100.00
65280;BME280;51878;55.748;48.742;2023-09-08T06:35:54;98557.28;;;11.04;100.00
65280;BME280;51878;55.748;48.742;2023-09-08T06:40:56;98557.81;;;11.32;100.00
65280;BME280;51878;55.748;48.742;2023-09-08T06:45:58;98507.75;;;11.28;100.00
65280;BME280;51878;55.748;48.742;2023-09-08T06:51:00;98566.88;;;11.71;100.00
65280;BME280;51878;55.748;48.742;2023-09-08T06:56:03;98578.50;;;11.92;100.00
65280;BME280;51878;55.748;48.742;2023-09-08T07:01:05;98526.34;;;11.70;100.00
65280;BME280;51878;55.748;48.742;2023-09-08T07:06:07;98556.78;;;11.85;100.00
65280;BME280;51878;55.748;48.742;2023-09-08T07:11:09;98533.16;;;11.92;100.00
65280;BME280;51878;55.748;48.742;2023-09-08T07:16:12;98565.84;;;12.43;100.00
65280;BME280;51878;55.748;48.742;2023-09-08T07:21:14;98536.94;;;12.73;100.00
65280;BME280;51878;55.748;48.742;2023-09-08T07:26:16;98579.78;;;13.03;100.00
65280;BME280;51878;55.748;48.742;2023-09-08T07:31:18;98543.09;;;12.62;97.57
65280;BME280;51878;55.748;48.742;2023-09-08T07:36:21;98563.69;;;13.01;95.31
65280;BME280;51878;55.748;48.742;2023-09-08T07:41:23;98570.69;;;13.34;95.74
65280;BME280;51878;55.748;48.742;2023-09-08T07:46:25;98576.75;;;13.55;90.73
65280;BME280;51878;55.748;48.742;2023-09-08T07:51:28;98542.28;;;13.23;94.65
65280;BME280;51878;55.748;48.742;2023-09-08T07:56:30;98537.28;;;12.84;99.15
65280;BME280;51878;55.748;48.742;2023-09-08T08:01:32;98569.06;;;13.27;100.00
65280;BME280;51878;55.748;48.742;2023-09-08T08:06:34;98537.00;;;13.10;100.00
65280;BME280;51878;55.748;48.742;2023-09-08T08:11:36;98569.03;;;13.52;95.28
65280;BME280;51878;55.748;48.742;2023-09-08T08:16:39;98562.50;;;14.01;92.16
65280;BME280;51878;55.748;48.742;2023-09-08T08:21:41;98537.03;;;14.50;77.09
65280;BME280;51878;55.748;48.742;2023-09-08T08:26:44;98566.63;;;15.23;70.96
65280;BME280;51878;55.748;48.742;2023-09-08T08:31:46;98562.50;;;15.21;66.97
65280;BME280;51878;55.748;48.742;2023-09-08T08:36:48;98538.16;;;15.31;66.61
65280;BME280;51878;55.748;48.742;2023-09-08T08:41:50;98562.94;;;15.53;62.98
65280;BME280;51878;55.748;48.742;2023-09-08T08:46:53;98554.78;;;15.41;60.68
65280;BME280;51878;55.748;48.742;2023-09-08T08:51:58;98534.19;;;15.50;59.68
65280;BME280;51878;55.748;48.742;2023-09-08T08:57:01;98549.72;;;16.02;58.94
65280;BME280;51878;55.748;48.742;2023-09-08T09:02:05;98507.00;;;16.13;57.06
65280;BME280;51878;55.748;48.742;2023-09-08T09:07:07;98537.22;;;17.03;53.53
65280;BME280;51878;55.748;48.742;2023-09-08T09:12:10;98571.03;;;17.30;50.93
65280;BME280;51878;55.748;48.742;2023-09-08T09:17:14;98552.97;;;17.73;50.84
65280;BME280;51878;55.748;48.742;2023-09-08T09:22:20;98552.25;;;18.05;46.63
65280;BME280;51878;55.748;48.742;2023-09-08T09:27:26;98578.53;;;18.50;45.75
65280;BME280;51878;55.748;48.742;2023-09-08T09:32:28;98576.66;;;19.20;40.06
65280;BME280;51878;55.748;48.742;2023-09-08T09:37:32;98564.53;;;20.42;40.81
65280;BME280;51878;55.748;48.742;2023-09-08T09:42:37;98565.69;;;20.93;39.44
65280;BME280;51878;55.748;48.742;2023-09-08T09:47:40;98508.09;;;20.76;37.13
65280;BME280;51878;55.748;48.742;2023-09-08T09:52:42;98534.22;;;20.37;37.97
65280;BME280;51878;55.748;48.742;2023-09-08T09:57:52;98525.91;;;19.44;38.36
65280;BME280;51878;55.748;48.742;2023-09-08T10:02:58;98573.56;;;19.12;37.15
65280;BME280;51878;55.748;48.742;2023-09-08T10:08:00;98519.09;;;18.07;38.76
65280;BME280;51878;55.748;48.742;2023-09-08T10:13:05;98547.66;;;17.84;39.99
65280;BME280;51878;55.748;48.742;2023-09-08T10:18:09;98594.34;;;17.72;40.33
65280;BME280;51878;55.748;48.742;2023-09-08T10:23:22;98622.91;;;17.37;41.17
65280;BME280;51878;55.748;48.742;2023-09-08T10:28:26;98617.13;;;17.00;42.03
65280;BME280;51878;55.748;48.742;2023-09-08T10:33:31;98574.13;;;16.66;42.43
65280;BME280;51878;55.748;48.742;2023-09-08T10:38:34;98574.88;;;16.62;42.27
65280;BME280;51878;55.748;48.742;2023-09-08T10:43:37;98566.25;;;16.24;44.15
65280;BME280;51878;55.748;48.742;2023-09-08T10:48:43;98600.84;;;16.30;45.94
65280;BME280;51878;55.748;48.742;2023-09-08T10:53:48;98615.50;;;16.24;46.23
65280;BME280;51878;55.748;48.742;2023-09-08T10:58:54;98613.78;;;16.35;45.80
65280;BME280;51878;55.748;48.742;2023-09-08T11:03:57;98571.59;;;16.31;45.40
65280;BME280;51878;55.748;48.742;2023-09-08T11:09:08;98495.63;;;15.76;43.75
65280;BME280;51878;55.748;48.742;2023-09-08T11:14:12;98628.72;;;16.44;45.55
65280;BME280;51878;55.748;48.742;2023-09-08T11:19:14;98494.94;;;15.68;45.65
65280;BME280;51878;55.748;48.742;2023-09-08T11:24:20;98579.72;;;16.26;46.23
65280;BME280;51878;55.748;48.742;2023-09-08T11:29:23;98589.72;;;16.20;48.68
65280;BME280;51878;55.748;48.742;2023-09-08T11:34:25;98628.84;;;16.21;49.84
65280;BME280;51878;55.748;48.742;2023-09-08T11:39:27;98634.13;;;16.39;50.10
65280;BME280;51878;55.748;48.742;2023-09-08T11:44:29;98642.84;;;16.24;51.18
65280;BME280;51878;55.748;48.742;2023-09-08T11:49:40;98604.09;;;15.99;50.93
65280;BME280;51878;55.748;48.742;2023-09-08T11:54:42;98574.41;;;15.67;50.31
65280;BME280;51878;55.748;48.742;2023-09-08T12:00:01;98627.06;;;15.62;51.05
65280;BME280;51878;55.748;48.742;2023-09-08T12:05:28;98647.97;;;15.80;50.38
65280;BME280;51878;55.748;48.742;2023-09-08T12:10:38;98654.97;;;15.64;50.07
65280;BME280;51878;55.748;48.742;2023-09-08T12:15:42;98647.66;;;15.41;50.23
65280;BME280;51878;55.748;48.742;2023-09-08T12:20:45;98611.03;;;14.83;52.25
65280;BME280;51878;55.748;48.742;2023-09-08T12:25:49;98652.22;;;15.05;52.05
65280;BME280;51878;55.748;48.742;2023-09-08T12:30:51;98649.88;;;15.21;51.80
65280;BME280;51878;55.748;48.742;2023-09-08T12:35:55;98614.38;;;15.09;51.54
65280;BME280;51878;55.748;48.742;2023-09-08T12:40:57;98653.94;;;15.30;51.48
65280;BME280;51878;55.748;48.742;2023-09-08T12:45:59;98605.94;;;15.22;51.35
65280;BME280;51878;55.748;48.742;2023-09-08T12:51:02;98652.59;;;15.91;51.11
65280;BME280;51878;55.748;48.742;2023-09-08T12:56:04;98625.63;;;16.24;49.19
65280;BME280;51878;55.748;48.742;2023-09-08T13:01:07;98638.91;;;16.61;48.27
65280;BME280;51878;55.748;48.742;2023-09-08T13:06:09;98631.38;;;16.39;47.76
65280;BME280;51878;55.748;48.742;2023-09-08T13:11:11;98665.19;;;16.33;47.91
65280;BME280;51878;55.748;48.742;2023-09-08T13:16:13;98561.97;;;15.71;47.52
65280;BME280;51878;55.748;48.742;2023-09-08T13:21:15;98655.72;;;16.24;48.55
65280;BME280;51878;55.748;48.742;2023-09-08T13:26:18;98657.47;;;17.94;47.24
65280;BME280;51878;55.748;48.742;2023-09-08T13:31:20;98677.31;;;21.05;39.54
65280;BME280;51878;55.748;48.742;2023-09-08T13:36:22;98603.84;;;22.91;35.23
65280;BME280;51878;55.748;48.742;2023-09-08T13:41:24;98633.88;;;24.39;32.35
65280;BME280;51878;55.748;48.742;2023-09-08T13:46:27;98639.88;;;25.22;30.01
65280;BME280;51878;55.748;48.742;2023-09-08T13:51:29;98638.19;;;25.86;29.35
65280;BME280;51878;55.748;48.742;2023-09-08T13:56:32;98674.72;;;26.21;28.36
65280;BME280;51878;55.748;48.742;2023-09-08T14:01:36;98638.06;;;26.97;27.94
65280;BME280;51878;55.748;48.742;2023-09-08T14:06:40;98644.13;;;26.49;27.92
65280;BME280;51878;55.748;48.742;2023-09-08T14:11:50;98682.03;;;26.03;28.14
65280;BME280;51878;55.748;48.742;2023-09-08T14:16:56;98651.88;;;25.50;28.33
65280;BME280;51878;55.748;48.742;2023-09-08T14:21:58;98641.81;;;25.02;29.11
65280;BME280;51878;55.748;48.742;2023-09-08T14:27:00;98686.56;;;22.82;31.64
65280;BME280;51878;55.748;48.742;2023-09-08T14:32:02;98680.69;;;22.39;32.97
65280;BME280;51878;55.748;48.742;2023-09-08T14:37:05;98648.91;;;21.61;34.15
65280;BME280;51878;55.748;48.742;2023-09-08T14:42:09;98691.38;;;21.71;33.83
65280;BME280;51878;55.748;48.742;2023-09-08T14:47:11;98663.53;;;21.31;33.89
65280;BME280;51878;55.748;48.742;2023-09-08T14:52:14;98694.69;;;21.06;35.26
65280;BME280;51878;55.748;48.742;2023-09-08T14:57:18;98673.31;;;20.50;35.54
65280;BME280;51878;55.748;48.742;2023-09-08T15:02:21;98671.63;;;19.81;36.31
65280;BME280;51878;55.748;48.742;2023-09-08T15:07:24;98715.63;;;19.11;37.54
65280;BME280;51878;55.748;48.742;2023-09-08T15:12:27;98723.94;;;18.01;39.28
65280;BME280;51878;55.748;48.742;2023-09-08T15:17:30;98638.63;;;16.17;41.37
65280;BME280;51878;55.748;48.742;2023-09-08T15:22:32;98739.69;;;15.53;43.49
65280;BME280;51878;55.748;48.742;2023-09-08T15:27:34;98738.50;;;14.46;46.32
65280;BME280;51878;55.748;48.742;2023-09-08T15:32:37;98749.69;;;13.64;49.72
65280;BME280;51878;55.748;48.742;2023-09-08T15:37:40;98759.34;;;13.10;51.05
65280;BME280;51878;55.748;48.742;2023-09-08T15:42:43;98656.47;;;11.78;56.01
65280;BME280;51878;55.748;48.742;2023-09-08T15:47:45;98706.22;;;11.65;58.20
65280;BME280;51878;55.748;48.742;2023-09-08T15:52:48;98752.38;;;11.58;60.69
65280;BME280;51878;55.748;48.742;2023-09-08T15:57:50;98770.56;;;11.31;63.68
65280;BME280;51878;55.748;48.742;2023-09-08T16:02:52;98737.09;;;10.84;65.44
65280;BME280;51878;55.748;48.742;2023-09-08T16:07:54;98761.94;;;10.81;67.06
65280;BME280;51878;55.748;48.742;2023-09-08T16:12:57;98734.50;;;10.43;70.97
65280;BME280;51878;55.748;48.742;2023-09-08T16:18:00;98777.66;;;10.44;76.26
65280;BME280;51878;55.748;48.742;2023-09-08T16:23:02;98727.63;;;9.99;76.39
65280;BME280;51878;55.748;48.742;2023-09-08T16:28:05;98782.94;;;10.18;77.43
65280;BME280;51878;55.748;48.742;2023-09-08T16:33:08;98674.38;;;9.36;79.05
65280;BME280;51878;55.748;48.742;2023-09-08T16:38:10;98781.56;;;9.93;80.37
65280;BME280;51878;55.748;48.742;2023-09-08T16:43:17;98789.59;;;9.80;84.81
65280;BME280;51878;55.748;48.742;2023-09-08T16:48:19;98767.16;;;9.58;85.20
65280;BME280;51878;55.748;48.742;2023-09-08T16:53:22;98712.88;;;9.10;87.90
65280;BME280;51878;55.748;48.742;2023-09-08T16:58:25;98764.06;;;9.33;88.92
65280;BME280;51878;55.748;48.742;2023-09-08T17:03:27;98792.00;;;9.40;90.71
65280;BME280;51878;55.748;48.742;2023-09-08T17:08:30;98800.47;;;9.30;93.14
65280;BME280;51878;55.748;48.742;2023-09-08T17:13:35;98799.34;;;9.25;94.66
65280;BME280;51878;55.748;48.742;2023-09-08T17:18:38;98783.41;;;9.08;95.09
65280;BME280;51878;55.748;48.742;2023-09-08T17:23:40;98806.13;;;9.14;96.27
65280;BME280;51878;55.748;48.742;2023-09-08T17:28:43;98789.13;;;8.99;96.86
65280;BME280;51878;55.748;48.742;2023-09-08T17:33:45;98791.81;;;8.99;97.28
65280;BME280;51878;55.748;48.742;2023-09-08T17:38:48;98784.22;;;8.87;98.08
65280;BME280;51878;55.748;48.742;2023-09-08T17:43:50;98791.69;;;8.85;99.77
65280;BME280;51878;55.748;48.742;2023-09-08T17:48:53;98779.50;;;8.75;100.00
65280;BME280;51878;55.748;48.742;2023-09-08T17:53:55;98755.44;;;8.58;100.00
65280;BME280;51878;55.748;48.742;2023-09-08T17:58:58;98740.75;;;8.46;100.00
65280;BME280;51878;55.748;48.742;2023-09-08T18:04:00;98742.16;;;8.42;100.00
65280;BME280;51878;55.748;48.742;2023-09-08T18:09:02;98751.31;;;8.41;100.00
65280;BME280;51878;55.748;48.742;2023-09-08T18:14:05;98798.94;;;8.63;100.00
65280;BME280;51878;55.748;48.742;2023-09-08T18:19:07;98809.00;;;8.55;100.00
65280;BME280;51878;55.748;48.742;2023-09-08T18:24:10;98763.97;;;8.25;100.00
65280;BME280;51878;55.748;48.742;2023-09-08T18:29:13;98793.94;;;8.45;100.00
65280;BME280;51878;55.748;48.742;2023-09-08T18:34:15;98774.84;;;8.32;100.00
65280;BME280;51878;55.748;48.742;2023-09-08T18:39:17;98800.75;;;8.41;100.00
65280;BME280;51878;55.748;48.742;2023-09-08T18:44:19;98795.97;;;8.28;100.00
65280;BME280;51878;55.748;48.742;2023-09-08T18:49:22;98761.00;;;8.05;100.00
65280;BME280;51878;55.748;48.742;2023-09-08T18:54:24;98760.75;;;8.00;100.00
65280;BME280;51878;55.748;48.742;2023-09-08T18:59:31;98764.63;;;7.98;100.00
65280;BME280;51878;55.748;48.742;2023-09-08T19:04:33;98726.59;;;7.78;100.00
65280;BME280;51878;55.748;48.742;2023-09-08T19:09:35;98754.22;;;7.95;100.00
65280;BME280;51878;55.748;48.742;2023-09-08T19:14:38;98804.00;;;8.22;100.00
65280;BME280;51878;55.748;48.742;2023-09-08T19:19:40;98761.66;;;7.93;100.00
65280;BME280;51878;55.748;48.742;2023-09-08T19:24:42;98787.63;;;8.08;100.00
65280;BME280;51878;55.748;48.742;2023-09-08T19:29:49;98767.06;;;7.93;100.00
65280;BME280;51878;55.748;48.742;2023-09-08T19:34:51;98754.31;;;7.86;100.00
65280;BME280;51878;55.748;48.742;2023-09-08T19:39:54;98778.44;;;8.03;100.00
65280;BME280;51878;55.748;48.742;2023-09-08T19:44:56;98791.34;;;8.22;100.00
65280;BME280;51878;55.748;48.742;2023-09-08T19:49:59;98768.53;;;8.10;100.00
65280;BME280;51878;55.748;48.742;2023-09-08T19:55:03;98788.44;;;8.24;100.00
65280;BME280;51878;55.748;48.742;2023-09-08T20:00:06;98776.63;;;8.25;100.00
65280;BME280;51878;55.748;48.742;2023-09-08T20:05:09;98783.78;;;8.33;100.00
65280;BME280;51878;55.748;48.742;2023-09-08T20:10:12;98769.94;;;8.21;100.00
65280;BME280;51878;55.748;48.742;2023-09-08T20:15:15;98773.94;;;8.25;100.00
65280;BME280;51878;55.748;48.742;2023-09-08T20:20:19;98773.66;;;8.20;100.00
65280;BME280;51878;55.748;48.742;2023-09-08T20:25:22;98772.38;;;8.16;100.00
65280;BME280;51878;55.748;48.742;2023-09-08T20:30:24;98654.59;;;7.34;100.00
65280;BME280;51878;55.748;48.742;2023-09-08T20:35:26;98764.47;;;7.99;100.00
65280;BME280;51878;55.748;48.742;2023-09-08T20:40:29;98765.94;;;8.02;100.00
65280;BME280;51878;55.748;48.742;2023-09-08T20:45:31;98749.88;;;7.94;100.00
65280;BME280;51878;55.748;48.742;2023-09-08T20:50:34;98752.66;;;8.00;100.00
65280;BME280;51878;55.748;48.742;2023-09-08T20:55:36;98703.50;;;7.75;100.00
65280;BME280;51878;55.748;48.742;2023-09-08T21:00:38;98715.97;;;7.91;100.00
65280;BME280;51878;55.748;48.742;2023-09-08T21:05:41;98763.22;;;8.32;100.00
65280;BME280;51878;55.748;48.742;2023-09-08T21:10:48;98768.16;;;8.43;100.00
65280;BME280;51878;55.748;48.742;2023-09-08T21:15:50;98763.84;;;8.48;100.00
65280;BME280;51878;55.748;48.742;2023-09-08T21:20:52;98725.84;;;8.50;100.00
65280;BME280;51878;55.748;48.742;2023-09-08T21:25:55;98737.44;;;8.65;100.00
65280;BME280;51878;55.748;48.742;2023-09-08T21:31:07;98721.03;;;8.67;100.00
65280;BME280;51878;55.748;48.742;2023-09-08T21:36:10;98766.19;;;8.95;100.00
65280;BME280;51878;55.748;48.742;2023-09-08T21:41:16;98649.00;;;8.16;100.00
65280;BME280;51878;55.748;48.742;2023-09-08T21:46:18;98763.06;;;8.91;100.00
65280;BME280;51878;55.748;48.742;2023-09-08T21:51:21;98747.91;;;8.75;100.00
65280;BME280;51878;55.748;48.742;2023-09-08T21:56:23;98703.16;;;8.44;100.00
65280;BME280;51878;55.748;48.742;2023-09-08T22:01:25;98690.88;;;8.27;100.00
65280;BME280;51878;55.748;48.742;2023-09-08T22:06:27;98735.25;;;8.54;100.00
65280;BME280;51878;55.748;48.742;2023-09-08T22:11:32;98696.78;;;8.37;100.00
65280;BME280;51878;55.748;48.742;2023-09-08T22:16:34;98746.03;;;8.54;100.00
65280;BME280;51878;55.748;48.742;2023-09-08T22:21:37;98723.72;;;8.31;100.00
65280;BME280;51878;55.748;48.742;2023-09-08T22:26:40;98750.91;;;8.44;100.00
65280;BME280;51878;55.748;48.742;2023-09-08T22:31:42;98770.09;;;8.49;100.00
65280;BME280;51878;55.748;48.742;2023-09-08T22:36:45;98759.13;;;8.36;100.00
65280;BME280;51878;55.748;48.742;2023-09-08T22:41:47;98758.19;;;8.43;100.00
65280;BME280;51878;55.748;48.742;2023-09-08T22:46:49;98748.22;;;8.29;100.00
65280;BME280;51878;55.748;48.742;2023-09-08T22:51:52;98756.25;;;8.22;100.00
65280;BME280;51878;55.748;48.742;2023-09-08T22:56:55;98772.53;;;8.29;100.00
65280;BME280;51878;55.748;48.742;2023-09-08T23:01:59;98728.88;;;7.96;100.00
65280;BME280;51878;55.748;48.742;2023-09-08T23:07:01;98759.97;;;8.21;100.00
65280;BME280;51878;55.748;48.742;2023-09-08T23:12:04;98766.41;;;8.20;100.00
65280;BME280;51878;55.748;48.742;2023-09-08T23:17:06;98764.44;;;8.14;100.00
65280;BME280;51878;55.748;48.742;2023-09-08T23:22:08;98751.31;;;8.11;100.00
65280;BME280;51878;55.748;48.742;2023-09-08T23:27:10;98747.13;;;8.08;100.00
65280;BME280;51878;55.748;48.742;2023-09-08T23:32:14;98725.44;;;8.02;100.00
65280;BME280;51878;55.748;48.742;2023-09-08T23:37:17;98627.06;;;7.38;100.00
65280;BME280;51878;55.748;48.742;2023-09-08T23:42:19;98733.09;;;7.98;100.00
65280;BME280;51878;55.748;48.742;2023-09-08T23:47:21;98741.81;;;8.15;100.00
65280;BME280;51878;55.748;48.742;2023-09-08T23:52:24;98733.06;;;8.13;100.00
65280;BME280;51878;55.748;48.742;2023-09-08T23:57:26;98681.84;;;7.83;100.00
